createdAt,value
2023-04-14T00:02:25.873Z,99564.71
2023-04-14T00:04:54.921Z,99568.36
2023-04-14T00:07:23.433Z,99574.95
2023-04-14T00:09:54.355Z,99573.04
2023-04-14T00:12:23.393Z,99574.64
2023-04-14T00:14:51.690Z,99572.69
2023-04-14T00:17:20.648Z,99570.06
2023-04-14T00:19:49.551Z,99568.78
2023-04-14T00:22:18.732Z,99572.13
2023-04-14T00:24:47.618Z,99571.50
2023-04-14T00:27:15.999Z,99574.06
2023-04-14T00:29:44.400Z,99578.48
2023-04-14T00:32:13.378Z,99578.09
2023-04-14T00:34:41.980Z,99578.83
2023-04-14T00:37:11.026Z,99574.20
2023-04-14T00:39:40.187Z,99573.21
2023-04-14T00:42:08.742Z,99570.92
2023-04-14T00:44:37.183Z,99574.70
2023-04-14T00:47:05.816Z,99571.23
2023-04-14T00:49:34.511Z,99576.30
2023-04-14T00:52:03.593Z,99579.11
2023-04-14T00:54:32.101Z,99574.99
2023-04-14T00:57:00.866Z,99577.36
2023-04-14T00:59:30.019Z,99578.18
2023-04-14T01:01:58.800Z,99576.52
2023-04-14T01:04:40.470Z,99571.83
2023-04-14T01:07:14.529Z,99573.22
2023-04-14T01:09:42.813Z,99570.82
2023-04-14T01:12:59.221Z,99572.96
2023-04-14T01:15:32.875Z,99574.39
2023-04-14T01:18:07.907Z,99572.73
2023-04-14T01:20:44.976Z,99578.68
2023-04-14T01:23:17.621Z,99580.52
2023-04-14T01:26:19.760Z,99582.41
2023-04-14T01:28:59.598Z,99581.13
2023-04-14T01:31:45.888Z,99580.02
2023-04-14T01:34:30.188Z,99577.12
2023-04-14T01:37:08.936Z,99574.67
2023-04-14T01:39:42.090Z,99577.15
2023-04-14T01:42:16.065Z,99575.29
2023-04-14T01:44:44.976Z,99572.58
2023-04-14T01:47:14.313Z,99572.79
2023-04-14T01:49:42.971Z,99571.89
2023-04-14T01:52:11.939Z,99580.44
2023-04-14T01:54:41.686Z,99579.61
2023-04-14T01:57:11.475Z,99577.08
2023-04-14T01:59:41.891Z,99576.38
2023-04-14T02:02:11.987Z,99576.00
2023-04-14T02:04:40.710Z,99571.92
2023-04-14T02:07:11.042Z,99577.55
2023-04-14T02:09:39.909Z,99585.19
2023-04-14T02:12:09.533Z,99588.71
2023-04-14T02:14:38.177Z,99591.22
2023-04-14T02:17:07.612Z,99587.48
2023-04-14T02:19:36.567Z,99593.58
2023-04-14T02:22:05.067Z,99596.30
2023-04-14T02:24:35.109Z,99598.95
2023-04-14T02:27:12.024Z,99601.84
2023-04-14T02:29:42.949Z,99600.42
2023-04-14T02:32:16.585Z,99601.48
2023-04-14T02:35:07.236Z,99604.69
2023-04-14T02:37:38.453Z,99610.33
2023-04-14T02:40:25.621Z,99617.46
2023-04-14T02:42:58.037Z,99613.08
2023-04-14T02:45:28.420Z,99619.58
2023-04-14T02:48:00.226Z,99618.64
2023-04-14T02:50:30.596Z,99620.68
2023-04-14T02:53:04.922Z,99623.80
2023-04-14T02:55:41.338Z,99625.99
2023-04-14T02:58:09.931Z,99623.46
2023-04-14T03:00:40.398Z,99627.98
2023-04-14T03:03:11.966Z,99623.48
2023-04-14T03:05:43.722Z,99626.67
2023-04-14T03:08:12.819Z,99631.98
2023-04-14T03:10:45.439Z,99636.02
2023-04-14T03:13:14.740Z,99634.34
2023-04-14T03:15:43.561Z,99633.77
2023-04-14T03:18:12.505Z,99632.80
2023-04-14T03:20:41.812Z,99631.55
2023-04-14T03:23:12.480Z,99633.98
2023-04-14T03:25:49.880Z,99632.92
2023-04-14T03:28:25.177Z,99631.81
2023-04-14T03:30:54.375Z,99634.53
2023-04-14T03:33:28.895Z,99637.08
2023-04-14T03:35:58.676Z,99642.36
2023-04-14T03:38:28.521Z,99647.46
2023-04-14T03:41:00.165Z,99649.98
2023-04-14T03:43:29.854Z,99654.59
2023-04-14T03:46:05.514Z,99657.27
2023-04-14T03:48:35.833Z,99661.33
2023-04-14T03:51:04.623Z,99667.86
2023-04-14T03:53:34.980Z,99669.77
2023-04-14T03:56:03.630Z,99670.23
2023-04-14T03:58:35.311Z,99677.25
2023-04-14T04:01:04.320Z,99678.42
2023-04-14T04:03:35.687Z,99680.12
2023-04-14T04:06:04.606Z,99683.52
2023-04-14T04:08:33.350Z,99686.77
2023-04-14T04:11:02.020Z,99685.61
2023-04-14T04:13:30.698Z,99687.56
2023-04-14T04:15:59.400Z,99689.95
2023-04-14T04:18:28.908Z,99691.62
2023-04-14T04:20:57.430Z,99693.66
2023-04-14T04:23:26.089Z,99692.94
2023-04-14T04:25:55.579Z,99697.04
2023-04-14T04:28:47.306Z,99696.13
2023-04-14T04:31:22.679Z,99696.27
2023-04-14T04:33:51.660Z,99697.69
2023-04-14T04:36:28.648Z,99698.36
2023-04-14T04:38:57.753Z,99704.70
2023-04-14T04:41:28.842Z,99703.84
2023-04-14T04:43:59.325Z,99706.29
2023-04-14T04:46:44.596Z,99706.84
2023-04-14T04:49:13.480Z,99706.56
2023-04-14T04:51:43.648Z,99709.05
2023-04-14T04:54:12.292Z,99707.40
2023-04-14T04:56:41.372Z,99708.46
2023-04-14T04:59:09.801Z,99712.71
2023-04-14T05:01:40.213Z,99717.71
2023-04-14T05:04:09.020Z,99719.60
2023-04-14T05:06:37.768Z,99722.34
2023-04-14T05:09:13.139Z,99725.11
2023-04-14T05:11:42.602Z,99726.13
2023-04-14T05:14:11.457Z,99727.34
2023-04-14T05:16:39.982Z,99724.84
2023-04-14T05:19:11.940Z,99728.42
2023-04-14T05:21:42.568Z,99727.81
2023-04-14T05:24:11.628Z,99732.80
2023-04-14T05:29:11.807Z,99739.84
2023-04-14T05:31:40.785Z,99739.26
2023-04-14T05:34:09.498Z,99741.55
2023-04-14T05:36:38.752Z,99742.30
2023-04-14T05:39:07.468Z,99748.40
2023-04-14T05:41:39.527Z,99752.30
2023-04-14T05:44:08.575Z,99753.34
2023-04-14T05:46:37.372Z,99747.73
2023-04-14T05:49:06.651Z,99745.39
2023-04-14T05:51:36.362Z,99745.55
2023-04-14T05:54:07.836Z,99745.44
2023-04-14T05:56:36.979Z,99750.80
2023-04-14T05:59:05.857Z,99752.23
2023-04-14T06:01:34.842Z,99754.48
2023-04-14T06:04:05.105Z,99758.11
2023-04-14T06:06:34.092Z,99762.88
2023-04-14T06:09:04.202Z,99764.15
2023-04-14T06:11:34.062Z,99767.09
2023-04-14T06:14:05.645Z,99770.29
2023-04-14T06:16:38.616Z,99776.67
2023-04-14T06:19:08.543Z,99777.08
2023-04-14T06:21:37.540Z,99779.88
2023-04-14T06:24:06.322Z,99781.88
2023-04-14T06:26:35.053Z,99786.24
2023-04-14T06:29:03.775Z,99789.71
2023-04-14T06:31:32.578Z,99795.06
2023-04-14T06:34:01.575Z,99790.84
2023-04-14T06:36:32.152Z,99793.98
2023-04-14T06:39:01.144Z,99794.59
2023-04-14T06:41:33.589Z,99797.63
2023-04-14T06:44:10.402Z,99801.39
2023-04-14T06:46:39.768Z,99804.64
2023-04-14T06:49:08.709Z,99806.89
2023-04-14T06:51:40.958Z,99806.60
2023-04-14T06:54:09.643Z,99814.75
2023-04-14T06:56:38.640Z,99815.53
2023-04-14T06:59:07.710Z,99817.52
2023-04-14T07:01:36.916Z,99814.96
2023-04-14T07:04:07.770Z,99815.46
2023-04-14T07:06:37.026Z,99825.05
2023-04-14T07:09:07.278Z,99825.85
2023-04-14T07:11:36.029Z,99825.52
2023-04-14T07:14:04.845Z,99836.02
2023-04-14T07:16:39.783Z,99839.98
2023-04-14T07:19:08.902Z,99839.77
2023-04-14T07:21:37.907Z,99844.52
2023-04-14T07:24:09.725Z,99842.94
2023-04-14T07:26:40.206Z,99844.08
2023-04-14T07:29:08.741Z,99850.06
2023-04-14T07:31:39.166Z,99847.54
2023-04-14T07:34:11.802Z,99851.44
2023-04-14T07:36:40.282Z,99851.36
2023-04-14T07:39:08.847Z,99852.75
2023-04-14T07:41:38.185Z,99850.59
2023-04-14T07:44:07.184Z,99854.96
2023-04-14T07:46:36.097Z,99852.57
2023-04-14T07:49:04.687Z,99858.35
2023-04-14T07:51:33.197Z,99857.30
2023-04-14T07:54:01.968Z,99861.66
2023-04-14T07:56:30.939Z,99859.48
2023-04-14T07:59:00.761Z,99861.14
2023-04-14T08:01:29.629Z,99861.25
2023-04-14T08:03:58.828Z,99865.73
2023-04-14T08:06:28.696Z,99869.67
2023-04-14T08:08:57.523Z,99868.61
2023-04-14T08:11:26.626Z,99874.85
2023-04-14T08:13:56.047Z,99870.76
2023-04-14T08:16:26.752Z,99876.11
2023-04-14T08:18:57.294Z,99875.21
2023-04-14T08:21:27.948Z,99880.65
2023-04-14T08:24:00.105Z,99879.89
2023-04-14T08:26:28.885Z,99883.70
2023-04-14T08:28:57.252Z,99883.60
2023-04-14T08:31:29.184Z,99884.45
2023-04-14T08:33:58.016Z,99887.90
2023-04-14T08:36:27.980Z,99887.58
2023-04-14T08:39:01.612Z,99888.61
2023-04-14T08:41:36.540Z,99888.58
2023-04-14T08:44:05.709Z,99886.34
2023-04-14T08:46:39.144Z,99888.05
2023-04-14T08:49:08.332Z,99886.98
2023-04-14T08:51:39.120Z,99887.45
2023-04-14T08:54:10.453Z,99888.70
2023-04-14T08:56:43.029Z,99888.37
2023-04-14T08:59:11.795Z,99888.41
2023-04-14T09:01:40.328Z,99889.80
2023-04-14T09:04:10.041Z,99896.24
2023-04-14T09:06:38.645Z,99891.93
2023-04-14T09:09:09.482Z,99897.74
2023-04-14T09:11:38.098Z,99896.42
2023-04-14T09:14:06.639Z,99901.52
2023-04-14T09:16:36.345Z,99905.68
2023-04-14T09:19:07.139Z,99910.73
2023-04-14T09:21:52.653Z,99912.02
2023-04-14T09:24:32.466Z,99910.06
2023-04-14T09:27:08.105Z,99915.77
2023-04-14T09:29:37.618Z,99915.48
2023-04-14T09:32:12.016Z,99919.61
2023-04-14T09:34:56.503Z,99921.35
2023-04-14T09:37:27.220Z,99929.14
2023-04-14T09:39:58.338Z,99933.42
2023-04-14T09:42:40.266Z,99933.91
2023-04-14T09:45:09.782Z,99935.16
2023-04-14T09:47:39.375Z,99935.52
2023-04-14T09:50:08.557Z,99938.59
2023-04-14T09:52:38.780Z,99936.45
2023-04-14T09:55:12.675Z,99940.30
2023-04-14T09:57:44.888Z,99939.16
2023-04-14T10:00:16.619Z,99941.45
2023-04-14T10:03:09.968Z,99946.73
2023-04-14T10:05:39.666Z,99949.03
2023-04-14T10:08:08.253Z,99953.43
2023-04-14T10:10:36.731Z,99951.90
2023-04-14T10:13:08.614Z,99956.45
2023-04-14T10:15:40.061Z,99961.21
2023-04-14T10:18:08.632Z,99962.91
2023-04-14T10:20:38.288Z,99964.88
2023-04-14T10:23:07.255Z,99972.02
2023-04-14T10:25:35.801Z,99973.27
2023-04-14T10:28:06.104Z,99974.29
2023-04-14T10:30:36.152Z,99976.88
2023-04-14T10:33:04.727Z,99982.68
2023-04-14T10:35:41.056Z,99984.97
2023-04-14T10:38:09.878Z,99984.48
2023-04-14T10:40:48.692Z,99991.77
2023-04-14T10:43:17.901Z,99996.60
2023-04-14T10:45:56.454Z,100000.56
2023-04-14T10:48:39.190Z,100001.31
2023-04-14T10:51:09.858Z,100012.66
2023-04-14T10:53:52.525Z,100011.05
2023-04-14T10:56:24.706Z,100020.85
2023-04-14T10:58:57.349Z,100020.39
2023-04-14T11:01:26.793Z,100026.72
2023-04-14T11:03:56.992Z,100029.36
2023-04-14T11:06:47.232Z,100031.73
2023-04-14T11:09:23.288Z,100032.11
2023-04-14T11:11:52.418Z,100035.63
2023-04-14T11:14:28.101Z,100037.44
2023-04-14T11:17:05.729Z,100036.54
2023-04-14T11:19:34.414Z,100036.17
2023-04-14T11:22:02.921Z,100040.41
2023-04-14T11:24:31.644Z,100039.14
2023-04-14T11:27:00.789Z,100046.60
2023-04-14T11:29:31.476Z,100047.94
2023-04-14T11:32:02.425Z,100049.02
2023-04-14T11:34:31.594Z,100056.77
2023-04-14T11:37:04.444Z,100057.36
2023-04-14T11:39:33.100Z,100066.71
2023-04-14T11:42:01.589Z,100066.42
2023-04-14T11:44:30.628Z,100072.72
2023-04-14T11:46:59.161Z,100074.77
2023-04-14T11:49:36.813Z,100072.73
2023-04-14T11:52:08.035Z,100075.40
2023-04-14T11:54:38.259Z,100074.22
2023-04-14T11:57:11.573Z,100075.17
2023-04-14T11:59:44.370Z,100077.84
2023-04-14T12:02:22.088Z,100075.98
2023-04-14T12:04:51.977Z,100078.49
2023-04-14T12:07:20.932Z,100077.35
2023-04-14T12:09:58.028Z,100077.20
2023-04-14T12:12:29.118Z,100076.44
2023-04-14T12:14:58.042Z,100082.31
2023-04-14T12:17:32.048Z,100080.84
2023-04-14T12:20:04.427Z,100085.80
2023-04-14T12:22:33.306Z,100087.95
2023-04-14T12:25:11.108Z,100090.64
2023-04-14T12:27:39.698Z,100099.87
2023-04-14T12:30:09.875Z,100104.85
2023-04-14T12:32:40.999Z,100104.61
2023-04-14T12:35:09.793Z,100113.48
2023-04-14T12:37:38.871Z,100113.63
2023-04-14T12:40:08.728Z,100119.67
2023-04-14T12:42:48.572Z,100116.32
2023-04-14T12:45:17.305Z,100121.95
2023-04-14T12:47:54.123Z,100125.80
2023-04-14T12:50:30.620Z,100127.88
2023-04-14T12:53:00.523Z,100127.31
2023-04-14T12:55:30.688Z,100127.13
2023-04-14T12:58:00.139Z,100124.96
2023-04-14T13:00:28.685Z,100130.33
2023-04-14T13:02:58.730Z,100129.27
2023-04-14T13:05:31.675Z,100135.64
2023-04-14T13:08:00.191Z,100129.21
2023-04-14T13:10:29.213Z,100138.56
2023-04-14T13:12:57.919Z,100140.52
2023-04-14T13:16:13.026Z,100142.52
2023-04-14T13:18:17.603Z,100141.61
2023-04-14T13:20:58.441Z,100140.94
2023-04-14T13:23:27.121Z,100143.23
2023-04-14T13:25:56.420Z,100143.86
2023-04-14T13:28:25.061Z,100148.05
2023-04-14T13:30:55.808Z,100143.55
2023-04-14T13:33:25.007Z,100151.22
2023-04-14T13:35:53.826Z,100153.86
2023-04-14T13:38:23.202Z,100158.73
2023-04-14T13:40:52.078Z,100162.84
2023-04-14T13:43:21.823Z,100164.64
2023-04-14T13:45:50.550Z,100167.63
2023-04-14T13:48:19.436Z,100179.42
2023-04-14T13:50:50.205Z,100186.14
2023-04-14T13:53:18.832Z,100192.54
2023-04-14T13:55:47.806Z,100193.11
2023-04-14T13:58:16.844Z,100193.27
2023-04-14T14:00:45.825Z,100201.36
2023-04-14T14:03:16.091Z,100203.05
2023-04-14T14:05:45.509Z,100209.51
2023-04-14T14:08:14.820Z,100213.61
2023-04-14T14:10:45.955Z,100226.57
2023-04-14T14:13:15.882Z,100222.91
2023-04-14T14:15:46.405Z,100227.60
2023-04-14T14:18:16.807Z,100228.33
2023-04-14T14:20:45.381Z,100235.77
2023-04-14T14:23:13.887Z,100246.18
2023-04-14T14:25:45.146Z,100243.73
2023-04-14T14:28:13.774Z,100250.50
2023-04-14T14:30:42.863Z,100254.85
2023-04-14T14:33:13.117Z,100258.10
2023-04-14T14:35:41.753Z,100263.11
2023-04-14T14:38:11.048Z,100260.61
2023-04-14T14:40:43.272Z,100261.85
2023-04-14T14:43:11.915Z,100265.52
2023-04-14T14:45:40.489Z,100270.55
2023-04-14T14:48:11.817Z,100273.17
2023-04-14T14:50:40.381Z,100275.81
2023-04-14T14:53:09.639Z,100277.87
2023-04-14T14:55:38.423Z,100280.73
2023-04-14T14:58:08.560Z,100282.66
2023-04-14T15:00:38.905Z,100283.45
2023-04-14T15:03:11.089Z,100285.70
2023-04-14T15:05:39.935Z,100289.10
2023-04-14T15:08:08.703Z,100285.20
2023-04-14T15:10:44.310Z,100289.64
2023-04-14T15:13:15.261Z,100289.52
2023-04-14T15:15:43.826Z,100296.05
2023-04-14T15:18:13.939Z,100302.08
2023-04-14T15:20:42.748Z,100310.55
2023-04-14T15:23:11.640Z,100313.59
2023-04-14T15:25:40.094Z,100314.83
2023-04-14T15:28:09.218Z,100329.80
2023-04-14T15:30:37.895Z,100335.05
2023-04-14T15:33:07.235Z,100334.74
2023-04-14T15:35:39.452Z,100333.55
2023-04-14T15:38:08.949Z,100335.52
2023-04-14T15:40:39.735Z,100340.82
2023-04-14T15:43:08.356Z,100342.08
2023-04-14T15:45:38.004Z,100346.14
2023-04-14T15:48:07.048Z,100346.46
2023-04-14T15:50:44.523Z,100349.37
2023-04-14T15:53:13.725Z,100354.20
2023-04-14T15:55:42.342Z,100357.99
2023-04-14T15:58:12.056Z,100359.41
2023-04-14T16:00:40.964Z,100363.34
2023-04-14T16:03:09.754Z,100366.98
2023-04-14T16:05:42.116Z,100370.04
2023-04-14T16:08:11.092Z,100377.31
2023-04-14T16:10:42.907Z,100380.81
2023-04-14T16:13:15.266Z,100385.57
2023-04-14T16:15:44.859Z,100392.80
2023-04-14T16:18:13.644Z,100396.70
2023-04-14T16:20:42.209Z,100397.88
2023-04-14T16:23:10.655Z,100407.06
2023-04-14T16:25:39.846Z,100410.06
2023-04-14T16:28:08.904Z,100411.79
2023-04-14T16:30:39.264Z,100418.89
2023-04-14T16:33:23.493Z,100426.14
2023-04-14T16:35:52.100Z,100428.39
2023-04-14T16:38:21.973Z,100433.00
2023-04-14T16:40:57.642Z,100434.13
2023-04-14T16:43:27.267Z,100444.55
2023-04-14T16:46:03.146Z,100452.94
2023-04-14T16:48:35.255Z,100454.15
2023-04-14T16:51:08.696Z,100458.84
2023-04-14T16:53:37.871Z,100463.20
2023-04-14T16:56:10.117Z,100467.23
2023-04-14T16:58:45.507Z,100464.39
2023-04-14T17:01:16.021Z,100472.73
2023-04-14T17:03:44.964Z,100471.19
2023-04-14T17:06:13.491Z,100476.65
2023-04-14T17:08:42.098Z,100480.28
2023-04-14T17:11:10.937Z,100478.70
2023-04-14T17:13:41.436Z,100482.44
2023-04-14T17:16:12.043Z,100482.82
2023-04-14T17:18:41.746Z,100483.66
2023-04-14T17:21:10.642Z,100485.21
2023-04-14T17:23:39.462Z,100486.09
2023-04-14T17:26:08.084Z,100486.39
2023-04-14T17:28:37.404Z,100488.20
2023-04-14T17:31:06.346Z,100493.84
2023-04-14T17:33:36.392Z,100496.81
2023-04-14T17:36:05.144Z,100499.92
2023-04-14T17:38:35.276Z,100501.56
2023-04-14T17:41:04.092Z,100507.48
2023-04-14T17:43:32.533Z,100512.73
2023-04-14T17:46:01.424Z,100515.23
2023-04-14T17:48:30.336Z,100510.39
2023-04-14T17:51:02.088Z,100518.30
2023-04-14T17:53:31.168Z,100520.17
2023-04-14T17:55:59.995Z,100530.89
2023-04-14T17:58:28.931Z,100536.75
2023-04-14T18:00:57.654Z,100541.98
2023-04-14T18:03:28.692Z,100544.02
2023-04-14T18:05:57.668Z,100546.91
2023-04-14T18:08:26.127Z,100547.28
2023-04-14T18:10:59.331Z,100550.33
2023-04-14T18:13:28.772Z,100554.23
2023-04-14T18:15:57.623Z,100556.60
2023-04-14T18:18:32.974Z,100556.29
2023-04-14T18:21:02.428Z,100558.08
2023-04-14T18:23:31.608Z,100559.02
2023-04-14T18:28:34.689Z,100559.42
2023-04-14T18:31:04.238Z,100565.52
2023-04-14T18:33:32.975Z,100563.02
2023-04-14T18:36:02.590Z,100563.94
2023-04-14T18:38:31.253Z,100568.00
2023-04-14T18:41:03.776Z,100570.60
2023-04-14T18:43:33.413Z,100572.45
2023-04-14T18:46:02.538Z,100575.96
2023-04-14T18:48:34.990Z,100575.73
2023-04-14T18:51:09.543Z,100574.40
2023-04-14T18:53:40.371Z,100579.24
2023-04-14T18:56:11.224Z,100578.86
2023-04-14T18:58:40.336Z,100579.71
2023-04-14T19:01:09.881Z,100584.09
2023-04-14T19:03:39.852Z,100586.50
2023-04-14T19:06:09.139Z,100586.98
2023-04-14T19:08:37.978Z,100585.56
2023-04-14T19:11:11.713Z,100596.73
2023-04-14T19:13:43.844Z,100595.33
2023-04-14T19:16:12.836Z,100594.45
2023-04-14T19:18:41.928Z,100599.52
2023-04-14T19:21:14.349Z,100602.03
2023-04-14T19:23:45.925Z,100606.03
2023-04-14T19:26:14.952Z,100604.46
2023-04-14T19:28:46.070Z,100607.48
2023-04-14T19:31:15.062Z,100607.80
2023-04-14T19:33:45.460Z,100600.23
2023-04-14T19:36:15.097Z,100605.67
2023-04-14T19:38:46.694Z,100604.69
2023-04-14T19:41:15.902Z,100606.44
2023-04-14T19:43:45.863Z,100608.95
2023-04-14T19:46:15.335Z,100611.01
2023-04-14T19:48:45.374Z,100611.41
2023-04-14T19:51:14.179Z,100613.58
2023-04-14T19:53:46.423Z,100614.38
2023-04-14T19:56:15.525Z,100617.10
2023-04-14T19:58:44.391Z,100618.89
2023-04-14T20:01:13.211Z,100616.39
2023-04-14T20:04:05.021Z,100626.91
2023-04-14T20:06:31.099Z,100633.58
2023-04-14T20:09:02.106Z,100634.13
2023-04-14T20:11:31.451Z,100636.05
2023-04-14T20:13:59.713Z,100636.71
2023-04-14T20:16:31.574Z,100641.37
2023-04-14T20:19:03.938Z,100647.20
2023-04-14T20:21:33.046Z,100650.64
2023-04-14T20:24:01.873Z,100647.42
2023-04-14T20:26:33.028Z,100647.16
2023-04-14T20:29:03.230Z,100650.25
2023-04-14T20:31:32.309Z,100648.63
2023-04-14T20:34:00.826Z,100659.88
2023-04-14T20:36:35.666Z,100664.85
2023-04-14T20:39:06.142Z,100670.27
2023-04-14T20:41:39.358Z,100673.45
2023-04-14T20:44:09.876Z,100678.48
2023-04-14T20:46:38.637Z,100683.48
2023-04-14T20:49:12.078Z,100690.35
2023-04-14T20:51:40.988Z,100689.15
2023-04-14T20:54:09.584Z,100691.67
2023-04-14T20:56:47.781Z,100701.84
2023-04-14T20:59:16.798Z,100697.27
2023-04-14T21:01:48.955Z,100699.52
2023-04-14T21:04:18.074Z,100701.89
2023-04-14T21:06:46.779Z,100712.48
2023-04-14T21:09:15.657Z,100718.66
2023-04-14T21:11:44.361Z,100716.90
2023-04-14T21:15:29.968Z,100717.19
2023-04-14T21:17:03.911Z,100726.73
2023-04-14T21:19:33.546Z,100725.65
2023-04-14T21:22:12.213Z,100726.73
2023-04-14T21:24:48.917Z,100729.16
2023-04-14T21:27:20.115Z,100729.74
2023-04-14T21:29:50.683Z,100739.19
2023-04-14T21:32:20.317Z,100735.69
2023-04-14T21:34:50.222Z,100734.03
2023-04-14T21:37:59.401Z,100740.83
